sensor_id;sensor_type;location;lat;lon;timestamp;P1;durP1;ratioP1;P2;durP2;ratioP2
74044;SDS011;62389;51.412;5.436;2023-10-09T00:01:24;17.48;;;8.32;;
74044;SDS011;62389;51.412;5.436;2023-10-09T00:03:51;13.50;;;8.10;;
74044;SDS011;62389;51.412;5.436;2023-10-09T00:08:49;18.17;;;7.75;;
74044;SDS011;62389;51.412;5.436;2023-10-09T00:11:19;14.45;;;7.85;;
74044;SDS011;62389;51.412;5.436;2023-10-09T00:13:45;13.90;;;8.00;;
74044;SDS011;62389;51.412;5.436;2023-10-09T00:16:15;15.10;;;7.55;;
74044;SDS011;62389;51.412;5.436;2023-10-09T00:18:41;13.57;;;8.07;;
74044;SDS011;62389;51.412;5.436;2023-10-09T00:21:14;13.80;;;7.90;;
74044;SDS011;62389;51.412;5.436;2023-10-09T00:23:47;14.25;;;8.35;;
74044;SDS011;62389;51.412;5.436;2023-10-09T00:26:24;13.73;;;8.07;;
74044;SDS011;62389;51.412;5.436;2023-10-09T00:28:50;13.55;;;9.20;;
74044;SDS011;62389;51.412;5.436;2023-10-09T00:31:16;15.13;;;8.38;;
74044;SDS011;62389;51.412;5.436;2023-10-09T00:33:51;12.80;;;7.95;;
74044;SDS011;62389;51.412;5.436;2023-10-09T00:36:20;16.40;;;8.13;;
74044;SDS011;62389;51.412;5.436;2023-10-09T00:41:18;15.63;;;7.13;;
74044;SDS011;62389;51.412;5.436;2023-10-09T00:43:54;15.95;;;8.48;;
74044;SDS011;62389;51.412;5.436;2023-10-09T00:46:24;13.30;;;8.57;;
74044;SDS011;62389;51.412;5.436;2023-10-09T00:48:59;13.27;;;7.65;;
74044;SDS011;62389;51.412;5.436;2023-10-09T00:51:28;15.13;;;7.45;;
74044;SDS011;62389;51.412;5.436;2023-10-09T00:54:01;15.80;;;7.60;;
74044;SDS011;62389;51.412;5.436;2023-10-09T00:59:22;14.68;;;7.63;;
74044;SDS011;62389;51.412;5.436;2023-10-09T01:01:50;14.90;;;8.07;;
74044;SDS011;62389;51.412;5.436;2023-10-09T01:04:21;15.25;;;7.88;;
74044;SDS011;62389;51.412;5.436;2023-10-09T01:06:50;13.43;;;8.38;;
74044;SDS011;62389;51.412;5.436;2023-10-09T01:09:31;13.40;;;8.10;;
74044;SDS011;62389;51.412;5.436;2023-10-09T01:12:02;13.88;;;8.00;;
74044;SDS011;62389;51.412;5.436;2023-10-09T01:14:29;14.23;;;7.60;;
74044;SDS011;62389;51.412;5.436;2023-10-09T01:16:56;14.10;;;8.30;;
74044;SDS011;62389;51.412;5.436;2023-10-09T01:19:22;16.25;;;8.57;;
74044;SDS011;62389;51.412;5.436;2023-10-09T01:21:52;12.93;;;7.50;;
74044;SDS011;62389;51.412;5.436;2023-10-09T01:24:19;13.93;;;6.70;;
74044;SDS011;62389;51.412;5.436;2023-10-09T01:26:45;14.38;;;7.88;;
74044;SDS011;62389;51.412;5.436;2023-10-09T01:29:18;14.65;;;7.57;;
74044;SDS011;62389;51.412;5.436;2023-10-09T01:31:49;15.15;;;7.90;;
74044;SDS011;62389;51.412;5.436;2023-10-09T01:36:52;14.35;;;7.28;;
74044;SDS011;62389;51.412;5.436;2023-10-09T01:39:21;13.07;;;7.93;;
74044;SDS011;62389;51.412;5.436;2023-10-09T01:41:52;13.77;;;8.02;;
74044;SDS011;62389;51.412;5.436;2023-10-09T01:46:55;13.63;;;7.07;;
74044;SDS011;62389;51.412;5.436;2023-10-09T01:49:23;17.05;;;7.90;;
74044;SDS011;62389;51.412;5.436;2023-10-09T01:52:00;15.00;;;8.10;;
74044;SDS011;62389;51.412;5.436;2023-10-09T01:54:32;14.00;;;7.82;;
74044;SDS011;62389;51.412;5.436;2023-10-09T01:57:05;12.50;;;7.03;;
74044;SDS011;62389;51.412;5.436;2023-10-09T01:59:35;17.00;;;8.27;;
74044;SDS011;62389;51.412;5.436;2023-10-09T02:02:03;14.02;;;8.23;;
74044;SDS011;62389;51.412;5.436;2023-10-09T02:04:38;16.58;;;8.52;;
74044;SDS011;62389;51.412;5.436;2023-10-09T02:07:05;14.93;;;8.02;;
74044;SDS011;62389;51.412;5.436;2023-10-09T02:09:33;13.60;;;8.60;;
74044;SDS011;62389;51.412;5.436;2023-10-09T02:11:59;16.40;;;7.80;;
74044;SDS011;62389;51.412;5.436;2023-10-09T02:14:26;15.13;;;8.35;;
74044;SDS011;62389;51.412;5.436;2023-10-09T02:16:52;16.65;;;7.75;;
74044;SDS011;62389;51.412;5.436;2023-10-09T02:19:36;15.18;;;7.65;;
74044;SDS011;62389;51.412;5.436;2023-10-09T02:22:05;13.52;;;7.63;;
74044;SDS011;62389;51.412;5.436;2023-10-09T02:24:43;15.38;;;9.38;;
74044;SDS011;62389;51.412;5.436;2023-10-09T02:27:22;14.55;;;8.55;;
74044;SDS011;62389;51.412;5.436;2023-10-09T02:30:10;13.70;;;7.93;;
74044;SDS011;62389;51.412;5.436;2023-10-09T02:32:44;13.05;;;7.53;;
74044;SDS011;62389;51.412;5.436;2023-10-09T02:35:19;12.63;;;8.50;;
74044;SDS011;62389;51.412;5.436;2023-10-09T02:37:59;15.10;;;8.48;;
74044;SDS011;62389;51.412;5.436;2023-10-09T02:40:28;13.85;;;8.15;;
74044;SDS011;62389;51.412;5.436;2023-10-09T02:42:58;17.15;;;8.93;;
74044;SDS011;62389;51.412;5.436;2023-10-09T02:45:24;15.65;;;8.57;;
74044;SDS011;62389;51.412;5.436;2023-10-09T02:47:49;13.48;;;8.07;;
74044;SDS011;62389;51.412;5.436;2023-10-09T02:50:16;17.50;;;7.53;;
74044;SDS011;62389;51.412;5.436;2023-10-09T02:52:47;17.38;;;8.38;;
74044;SDS011;62389;51.412;5.436;2023-10-09T02:55:17;20.00;;;9.75;;
74044;SDS011;62389;51.412;5.436;2023-10-09T02:57:50;18.60;;;9.00;;
74044;SDS011;62389;51.412;5.436;2023-10-09T03:00:30;16.77;;;9.15;;
74044;SDS011;62389;51.412;5.436;2023-10-09T03:02:57;15.52;;;8.00;;
74044;SDS011;62389;51.412;5.436;2023-10-09T03:05:23;17.10;;;9.30;;
74044;SDS011;62389;51.412;5.436;2023-10-09T03:07:52;14.93;;;8.75;;
74044;SDS011;62389;51.412;5.436;2023-10-09T03:10:23;13.95;;;8.68;;
74044;SDS011;62389;51.412;5.436;2023-10-09T03:12:50;15.98;;;8.80;;
74044;SDS011;62389;51.412;5.436;2023-10-09T03:15:18;17.50;;;9.40;;
74044;SDS011;62389;51.412;5.436;2023-10-09T03:17:45;17.35;;;8.98;;
74044;SDS011;62389;51.412;5.436;2023-10-09T03:20:13;14.27;;;8.50;;
74044;SDS011;62389;51.412;5.436;2023-10-09T03:22:39;14.07;;;7.78;;
74044;SDS011;62389;51.412;5.436;2023-10-09T03:25:06;15.27;;;9.20;;
74044;SDS011;62389;51.412;5.436;2023-10-09T03:27:42;17.70;;;8.35;;
74044;SDS011;62389;51.412;5.436;2023-10-09T03:30:15;14.43;;;9.52;;
74044;SDS011;62389;51.412;5.436;2023-10-09T03:32:43;15.85;;;9.40;;
74044;SDS011;62389;51.412;5.436;2023-10-09T03:35:15;15.30;;;9.13;;
74044;SDS011;62389;51.412;5.436;2023-10-09T03:37:49;15.32;;;8.77;;
74044;SDS011;62389;51.412;5.436;2023-10-09T03:40:15;13.73;;;9.00;;
74044;SDS011;62389;51.412;5.436;2023-10-09T03:42:43;14.80;;;8.73;;
74044;SDS011;62389;51.412;5.436;2023-10-09T03:45:09;13.50;;;7.88;;
74044;SDS011;62389;51.412;5.436;2023-10-09T03:47:43;15.10;;;9.18;;
74044;SDS011;62389;51.412;5.436;2023-10-09T03:50:13;13.70;;;8.27;;
74044;SDS011;62389;51.412;5.436;2023-10-09T03:53:02;14.15;;;8.60;;
74044;SDS011;62389;51.412;5.436;2023-10-09T03:55:36;14.30;;;8.52;;
74044;SDS011;62389;51.412;5.436;2023-10-09T03:58:05;15.27;;;8.75;;
74044;SDS011;62389;51.412;5.436;2023-10-09T04:03:06;14.50;;;8.48;;
74044;SDS011;62389;51.412;5.436;2023-10-09T04:05:31;14.57;;;8.93;;
74044;SDS011;62389;51.412;5.436;2023-10-09T04:07:57;15.25;;;9.07;;
74044;SDS011;62389;51.412;5.436;2023-10-09T04:10:26;16.33;;;9.00;;
74044;SDS011;62389;51.412;5.436;2023-10-09T04:13:20;14.52;;;8.82;;
74044;SDS011;62389;51.412;5.436;2023-10-09T04:15:51;15.27;;;8.73;;
74044;SDS011;62389;51.412;5.436;2023-10-09T04:20:53;17.60;;;8.95;;
74044;SDS011;62389;51.412;5.436;2023-10-09T04:23:43;13.48;;;8.00;;
74044;SDS011;62389;51.412;5.436;2023-10-09T04:26:25;19.33;;;9.45;;
74044;SDS011;62389;51.412;5.436;2023-10-09T04:28:50;16.65;;;9.27;;
74044;SDS011;62389;51.412;5.436;2023-10-09T04:31:19;14.68;;;7.70;;
74044;SDS011;62389;51.412;5.436;2023-10-09T04:33:47;15.88;;;8.55;;
74044;SDS011;62389;51.412;5.436;2023-10-09T04:36:45;18.85;;;8.57;;
74044;SDS011;62389;51.412;5.436;2023-10-09T04:39:14;13.88;;;8.82;;
74044;SDS011;62389;51.412;5.436;2023-10-09T04:41:42;16.08;;;8.70;;
74044;SDS011;62389;51.412;5.436;2023-10-09T04:44:08;15.88;;;9.25;;
74044;SDS011;62389;51.412;5.436;2023-10-09T04:46:43;14.70;;;8.05;;
74044;SDS011;62389;51.412;5.436;2023-10-09T04:49:12;15.10;;;9.30;;
74044;SDS011;62389;51.412;5.436;2023-10-09T04:51:55;15.35;;;8.68;;
74044;SDS011;62389;51.412;5.436;2023-10-09T04:54:30;18.00;;;9.73;;
74044;SDS011;62389;51.412;5.436;2023-10-09T04:57:19;16.58;;;9.70;;
74044;SDS011;62389;51.412;5.436;2023-10-09T04:59:44;16.90;;;9.77;;
74044;SDS011;62389;51.412;5.436;2023-10-09T05:02:12;18.35;;;10.20;;
74044;SDS011;62389;51.412;5.436;2023-10-09T05:04:44;18.23;;;9.48;;
74044;SDS011;62389;51.412;5.436;2023-10-09T05:07:12;19.90;;;9.45;;
74044;SDS011;62389;51.412;5.436;2023-10-09T05:09:56;20.30;;;10.95;;
74044;SDS011;62389;51.412;5.436;2023-10-09T05:12:32;17.08;;;9.63;;
74044;SDS011;62389;51.412;5.436;2023-10-09T05:14:57;17.33;;;10.20;;
74044;SDS011;62389;51.412;5.436;2023-10-09T05:17:34;17.65;;;10.23;;
74044;SDS011;62389;51.412;5.436;2023-10-09T05:20:03;17.25;;;10.23;;
74044;SDS011;62389;51.412;5.436;2023-10-09T05:22:55;19.63;;;10.40;;
74044;SDS011;62389;51.412;5.436;2023-10-09T05:25:25;17.65;;;10.35;;
74044;SDS011;62389;51.412;5.436;2023-10-09T05:28:09;17.83;;;9.50;;
74044;SDS011;62389;51.412;5.436;2023-10-09T05:30:50;16.33;;;10.80;;
74044;SDS011;62389;51.412;5.436;2023-10-09T05:33:28;20.13;;;10.55;;
74044;SDS011;62389;51.412;5.436;2023-10-09T05:35:54;17.08;;;10.70;;
74044;SDS011;62389;51.412;5.436;2023-10-09T05:38:38;17.85;;;10.05;;
74044;SDS011;62389;51.412;5.436;2023-10-09T05:41:11;18.55;;;10.00;;
74044;SDS011;62389;51.412;5.436;2023-10-09T05:43:55;19.48;;;10.40;;
74044;SDS011;62389;51.412;5.436;2023-10-09T05:46:39;20.55;;;10.25;;
74044;SDS011;62389;51.412;5.436;2023-10-09T05:49:26;18.27;;;11.40;;
74044;SDS011;62389;51.412;5.436;2023-10-09T05:52:10;19.88;;;10.95;;
74044;SDS011;62389;51.412;5.436;2023-10-09T05:54:55;22.23;;;10.57;;
74044;SDS011;62389;51.412;5.436;2023-10-09T05:57:39;18.58;;;11.43;;
74044;SDS011;62389;51.412;5.436;2023-10-09T06:00:23;16.77;;;11.02;;
74044;SDS011;62389;51.412;5.436;2023-10-09T06:03:21;23.30;;;10.82;;
74044;SDS011;62389;51.412;5.436;2023-10-09T06:05:54;19.50;;;10.93;;
74044;SDS011;62389;51.412;5.436;2023-10-09T06:08:26;21.17;;;11.50;;
74044;SDS011;62389;51.412;5.436;2023-10-09T06:11:12;20.90;;;11.15;;
74044;SDS011;62389;51.412;5.436;2023-10-09T06:16:38;20.67;;;10.98;;
74044;SDS011;62389;51.412;5.436;2023-10-09T06:19:11;19.23;;;11.32;;
74044;SDS011;62389;51.412;5.436;2023-10-09T06:21:51;20.85;;;10.63;;
74044;SDS011;62389;51.412;5.436;2023-10-09T06:24:20;22.98;;;11.82;;
74044;SDS011;62389;51.412;5.436;2023-10-09T06:26:48;21.73;;;11.93;;
74044;SDS011;62389;51.412;5.436;2023-10-09T06:29:40;22.58;;;11.82;;
74044;SDS011;62389;51.412;5.436;2023-10-09T06:32:11;24.88;;;12.82;;
74044;SDS011;62389;51.412;5.436;2023-10-09T06:35:04;20.35;;;11.57;;
74044;SDS011;62389;51.412;5.436;2023-10-09T06:37:44;23.90;;;12.50;;
74044;SDS011;62389;51.412;5.436;2023-10-09T06:40:26;19.55;;;10.88;;
74044;SDS011;62389;51.412;5.436;2023-10-09T06:43:13;25.27;;;11.77;;
74044;SDS011;62389;51.412;5.436;2023-10-09T06:45:45;20.70;;;12.15;;
74044;SDS011;62389;51.412;5.436;2023-10-09T06:48:14;22.65;;;13.15;;
74044;SDS011;62389;51.412;5.436;2023-10-09T06:50:58;19.55;;;11.32;;
74044;SDS011;62389;51.412;5.436;2023-10-09T06:53:46;23.40;;;10.98;;
74044;SDS011;62389;51.412;5.436;2023-10-09T06:56:18;23.63;;;13.15;;
74044;SDS011;62389;51.412;5.436;2023-10-09T06:58:56;21.67;;;11.93;;
74044;SDS011;62389;51.412;5.436;2023-10-09T07:04:07;25.08;;;11.98;;
74044;SDS011;62389;51.412;5.436;2023-10-09T07:06:56;21.67;;;12.60;;
74044;SDS011;62389;51.412;5.436;2023-10-09T07:09:22;23.13;;;11.95;;
74044;SDS011;62389;51.412;5.436;2023-10-09T07:11:51;18.65;;;11.40;;
74044;SDS011;62389;51.412;5.436;2023-10-09T07:14:18;22.33;;;11.45;;
74044;SDS011;62389;51.412;5.436;2023-10-09T07:17:00;23.05;;;12.15;;
74044;SDS011;62389;51.412;5.436;2023-10-09T07:19:29;20.27;;;12.65;;
74044;SDS011;62389;51.412;5.436;2023-10-09T07:21:59;20.27;;;11.57;;
74044;SDS011;62389;51.412;5.436;2023-10-09T07:24:41;22.42;;;11.32;;
74044;SDS011;62389;51.412;5.436;2023-10-09T07:27:14;25.60;;;12.13;;
74044;SDS011;62389;51.412;5.436;2023-10-09T07:29:42;21.58;;;11.95;;
74044;SDS011;62389;51.412;5.436;2023-10-09T07:32:14;22.20;;;12.20;;
74044;SDS011;62389;51.412;5.436;2023-10-09T07:34:48;21.55;;;11.95;;
74044;SDS011;62389;51.412;5.436;2023-10-09T07:37:18;24.52;;;13.40;;
74044;SDS011;62389;51.412;5.436;2023-10-09T07:39:55;20.65;;;11.50;;
74044;SDS011;62389;51.412;5.436;2023-10-09T07:42:24;20.05;;;12.90;;
74044;SDS011;62389;51.412;5.436;2023-10-09T07:45:05;21.27;;;12.60;;
74044;SDS011;62389;51.412;5.436;2023-10-09T07:47:45;19.92;;;12.43;;
74044;SDS011;62389;51.412;5.436;2023-10-09T07:50:28;23.60;;;13.65;;
74044;SDS011;62389;51.412;5.436;2023-10-09T07:53:15;22.02;;;12.90;;
74044;SDS011;62389;51.412;5.436;2023-10-09T07:55:45;27.80;;;12.63;;
74044;SDS011;62389;51.412;5.436;2023-10-09T07:58:23;32.70;;;13.13;;
74044;SDS011;62389;51.412;5.436;2023-10-09T08:00:55;37.00;;;13.27;;
74044;SDS011;62389;51.412;5.436;2023-10-09T08:03:40;25.35;;;13.18;;
74044;SDS011;62389;51.412;5.436;2023-10-09T08:06:10;20.30;;;11.30;;
74044;SDS011;62389;51.412;5.436;2023-10-09T08:08:55;25.80;;;12.38;;
74044;SDS011;62389;51.412;5.436;2023-10-09T08:11:48;22.13;;;12.57;;
74044;SDS011;62389;51.412;5.436;2023-10-09T08:14:39;22.67;;;12.38;;
74044;SDS011;62389;51.412;5.436;2023-10-09T08:17:06;20.23;;;12.48;;
74044;SDS011;62389;51.412;5.436;2023-10-09T08:19:42;24.80;;;12.45;;
74044;SDS011;62389;51.412;5.436;2023-10-09T08:22:24;22.27;;;12.05;;
74044;SDS011;62389;51.412;5.436;2023-10-09T08:24:53;20.42;;;12.52;;
74044;SDS011;62389;51.412;5.436;2023-10-09T08:27:22;24.85;;;13.45;;
74044;SDS011;62389;51.412;5.436;2023-10-09T08:30:13;21.80;;;13.25;;
74044;SDS011;62389;51.412;5.436;2023-10-09T08:32:42;20.58;;;12.27;;
74044;SDS011;62389;51.412;5.436;2023-10-09T08:35:08;21.40;;;13.25;;
74044;SDS011;62389;51.412;5.436;2023-10-09T08:37:53;25.27;;;13.10;;
74044;SDS011;62389;51.412;5.436;2023-10-09T08:40:19;26.58;;;14.35;;
74044;SDS011;62389;51.412;5.436;2023-10-09T08:42:52;26.17;;;14.30;;
74044;SDS011;62389;51.412;5.436;2023-10-09T08:47:50;25.27;;;13.88;;
74044;SDS011;62389;51.412;5.436;2023-10-09T08:50:19;25.48;;;13.73;;
74044;SDS011;62389;51.412;5.436;2023-10-09T08:52:46;25.40;;;13.98;;
74044;SDS011;62389;51.412;5.436;2023-10-09T08:55:14;22.65;;;14.65;;
74044;SDS011;62389;51.412;5.436;2023-10-09T08:57:42;21.77;;;13.10;;
74044;SDS011;62389;51.412;5.436;2023-10-09T09:00:16;25.73;;;14.10;;
74044;SDS011;62389;51.412;5.436;2023-10-09T09:02:46;22.23;;;13.60;;
74044;SDS011;62389;51.412;5.436;2023-10-09T09:05:18;28.25;;;13.20;;
74044;SDS011;62389;51.412;5.436;2023-10-09T09:07:45;23.35;;;12.80;;
74044;SDS011;62389;51.412;5.436;2023-10-09T09:10:11;21.75;;;12.98;;
74044;SDS011;62389;51.412;5.436;2023-10-09T09:12:43;21.42;;;13.02;;
74044;SDS011;62389;51.412;5.436;2023-10-09T09:15:15;24.63;;;13.23;;
74044;SDS011;62389;51.412;5.436;2023-10-09T09:17:46;23.27;;;14.02;;
74044;SDS011;62389;51.412;5.436;2023-10-09T09:22:51;22.40;;;12.52;;
74044;SDS011;62389;51.412;5.436;2023-10-09T09:25:23;22.60;;;14.00;;
74044;SDS011;62389;51.412;5.436;2023-10-09T09:27:56;27.00;;;13.20;;
74044;SDS011;62389;51.412;5.436;2023-10-09T09:30:25;25.52;;;13.70;;
74044;SDS011;62389;51.412;5.436;2023-10-09T09:32:58;22.35;;;11.68;;
74044;SDS011;62389;51.412;5.436;2023-10-09T09:35:55;24.25;;;11.77;;
74044;SDS011;62389;51.412;5.436;2023-10-09T09:38:22;21.13;;;14.27;;
74044;SDS011;62389;51.412;5.436;2023-10-09T09:40:50;31.48;;;13.38;;
74044;SDS011;62389;51.412;5.436;2023-10-09T09:43:19;22.95;;;12.10;;
74044;SDS011;62389;51.412;5.436;2023-10-09T09:45:47;22.38;;;11.68;;
74044;SDS011;62389;51.412;5.436;2023-10-09T09:48:16;21.52;;;12.98;;
74044;SDS011;62389;51.412;5.436;2023-10-09T09:50:44;22.20;;;13.32;;
74044;SDS011;62389;51.412;5.436;2023-10-09T09:53:14;23.23;;;13.75;;
74044;SDS011;62389;51.412;5.436;2023-10-09T09:55:52;23.80;;;13.38;;
74044;SDS011;62389;51.412;5.436;2023-10-09T09:58:24;22.80;;;12.98;;
74044;SDS011;62389;51.412;5.436;2023-10-09T10:00:59;22.95;;;13.27;;
74044;SDS011;62389;51.412;5.436;2023-10-09T10:03:36;25.48;;;13.90;;
74044;SDS011;62389;51.412;5.436;2023-10-09T10:06:08;26.10;;;16.48;;
74044;SDS011;62389;51.412;5.436;2023-10-09T10:08:37;27.45;;;15.43;;
74044;SDS011;62389;51.412;5.436;2023-10-09T10:11:04;25.42;;;12.85;;
74044;SDS011;62389;51.412;5.436;2023-10-09T10:13:54;25.45;;;15.45;;
74044;SDS011;62389;51.412;5.436;2023-10-09T10:16:23;25.10;;;15.65;;
74044;SDS011;62389;51.412;5.436;2023-10-09T10:18:59;29.77;;;16.92;;
74044;SDS011;62389;51.412;5.436;2023-10-09T10:21:28;26.17;;;16.25;;
74044;SDS011;62389;51.412;5.436;2023-10-09T10:24:02;28.17;;;17.05;;
74044;SDS011;62389;51.412;5.436;2023-10-09T10:26:31;25.48;;;15.35;;
74044;SDS011;62389;51.412;5.436;2023-10-09T10:29:15;28.08;;;16.80;;
74044;SDS011;62389;51.412;5.436;2023-10-09T10:32:05;28.00;;;15.57;;
74044;SDS011;62389;51.412;5.436;2023-10-09T10:37:11;28.50;;;15.95;;
74044;SDS011;62389;51.412;5.436;2023-10-09T10:39:49;28.67;;;16.15;;
74044;SDS011;62389;51.412;5.436;2023-10-09T10:42:15;27.70;;;13.90;;
74044;SDS011;62389;51.412;5.436;2023-10-09T10:44:59;25.30;;;15.73;;
74044;SDS011;62389;51.412;5.436;2023-10-09T10:47:28;27.35;;;16.42;;
74044;SDS011;62389;51.412;5.436;2023-10-09T10:49:59;32.50;;;14.82;;
74044;SDS011;62389;51.412;5.436;2023-10-09T10:52:53;22.00;;;15.18;;
74044;SDS011;62389;51.412;5.436;2023-10-09T10:55:22;23.52;;;14.25;;
74044;SDS011;62389;51.412;5.436;2023-10-09T10:58:00;23.48;;;13.82;;
74044;SDS011;62389;51.412;5.436;2023-10-09T11:00:27;24.23;;;14.80;;
74044;SDS011;62389;51.412;5.436;2023-10-09T11:03:18;27.40;;;15.18;;
74044;SDS011;62389;51.412;5.436;2023-10-09T11:06:03;25.25;;;14.07;;
74044;SDS011;62389;51.412;5.436;2023-10-09T11:08:46;28.70;;;14.38;;
74044;SDS011;62389;51.412;5.436;2023-10-09T11:11:20;24.90;;;13.88;;
74044;SDS011;62389;51.412;5.436;2023-10-09T11:13:46;25.30;;;14.77;;
74044;SDS011;62389;51.412;5.436;2023-10-09T11:16:30;25.58;;;15.40;;
74044;SDS011;62389;51.412;5.436;2023-10-09T11:19:11;26.83;;;15.48;;
74044;SDS011;62389;51.412;5.436;2023-10-09T11:21:53;28.02;;;14.77;;
74044;SDS011;62389;51.412;5.436;2023-10-09T11:24:46;33.38;;;18.17;;
74044;SDS011;62389;51.412;5.436;2023-10-09T11:27:26;32.80;;;17.27;;
74044;SDS011;62389;51.412;5.436;2023-10-09T11:29:57;26.02;;;15.52;;
74044;SDS011;62389;51.412;5.436;2023-10-09T11:32:30;32.92;;;15.45;;
74044;SDS011;62389;51.412;5.436;2023-10-09T11:35:13;31.23;;;15.02;;
74044;SDS011;62389;51.412;5.436;2023-10-09T11:37:56;33.63;;;18.30;;
74044;SDS011;62389;51.412;5.436;2023-10-09T11:40:32;29.73;;;14.40;;
74044;SDS011;62389;51.412;5.436;2023-10-09T11:43:15;28.77;;;16.52;;
74044;SDS011;62389;51.412;5.436;2023-10-09T11:45:40;30.13;;;17.40;;
74044;SDS011;62389;51.412;5.436;2023-10-09T11:48:19;27.25;;;17.15;;
74044;SDS011;62389;51.412;5.436;2023-10-09T11:50:59;27.73;;;17.33;;
74044;SDS011;62389;51.412;5.436;2023-10-09T11:53:27;25.17;;;16.77;;
74044;SDS011;62389;51.412;5.436;2023-10-09T11:55:53;28.90;;;15.48;;
74044;SDS011;62389;51.412;5.436;2023-10-09T11:58:18;30.80;;;18.30;;
74044;SDS011;62389;51.412;5.436;2023-10-09T12:00:50;27.48;;;15.52;;
74044;SDS011;62389;51.412;5.436;2023-10-09T12:03:21;26.38;;;15.63;;
74044;SDS011;62389;51.412;5.436;2023-10-09T12:05:48;25.25;;;15.65;;
74044;SDS011;62389;51.412;5.436;2023-10-09T12:08:14;27.42;;;15.15;;
74044;SDS011;62389;51.412;5.436;2023-10-09T12:10:41;25.92;;;14.65;;
74044;SDS011;62389;51.412;5.436;2023-10-09T12:13:07;29.85;;;16.65;;
74044;SDS011;62389;51.412;5.436;2023-10-09T12:15:32;29.00;;;15.35;;
74044;SDS011;62389;51.412;5.436;2023-10-09T12:18:05;28.80;;;14.75;;
74044;SDS011;62389;51.412;5.436;2023-10-09T12:20:34;23.75;;;13.10;;
74044;SDS011;62389;51.412;5.436;2023-10-09T12:23:00;24.17;;;14.48;;
74044;SDS011;62389;51.412;5.436;2023-10-09T12:25:26;25.90;;;13.68;;
74044;SDS011;62389;51.412;5.436;2023-10-09T12:27:56;20.42;;;11.82;;
74044;SDS011;62389;51.412;5.436;2023-10-09T12:30:22;19.92;;;11.73;;
74044;SDS011;62389;51.412;5.436;2023-10-09T12:32:52;20.00;;;11.00;;
74044;SDS011;62389;51.412;5.436;2023-10-09T12:35:19;22.92;;;13.23;;
74044;SDS011;62389;51.412;5.436;2023-10-09T12:37:44;23.70;;;12.32;;
74044;SDS011;62389;51.412;5.436;2023-10-09T12:40:09;23.15;;;12.95;;
74044;SDS011;62389;51.412;5.436;2023-10-09T12:42:48;18.58;;;10.30;;
74044;SDS011;62389;51.412;5.436;2023-10-09T12:45:14;18.85;;;10.18;;
74044;SDS011;62389;51.412;5.436;2023-10-09T12:47:42;21.55;;;10.10;;
74044;SDS011;62389;51.412;5.436;2023-10-09T12:50:07;21.27;;;9.73;;
74044;SDS011;62389;51.412;5.436;2023-10-09T12:52:38;22.95;;;10.60;;
74044;SDS011;62389;51.412;5.436;2023-10-09T12:55:04;18.45;;;11.57;;
74044;SDS011;62389;51.412;5.436;2023-10-09T12:57:35;18.02;;;10.45;;
74044;SDS011;62389;51.412;5.436;2023-10-09T13:00:02;20.10;;;9.85;;
74044;SDS011;62389;51.412;5.436;2023-10-09T13:02:36;20.27;;;10.45;;
74044;SDS011;62389;51.412;5.436;2023-10-09T13:05:01;16.83;;;10.32;;
74044;SDS011;62389;51.412;5.436;2023-10-09T13:07:30;18.83;;;8.80;;
74044;SDS011;62389;51.412;5.436;2023-10-09T13:09:55;16.08;;;9.20;;
74044;SDS011;62389;51.412;5.436;2023-10-09T13:12:38;14.50;;;7.45;;
74044;SDS011;62389;51.412;5.436;2023-10-09T13:15:07;14.10;;;8.10;;
74044;SDS011;62389;51.412;5.436;2023-10-09T13:17:35;14.48;;;7.65;;
74044;SDS011;62389;51.412;5.436;2023-10-09T13:20:03;15.93;;;7.82;;
74044;SDS011;62389;51.412;5.436;2023-10-09T13:22:39;16.90;;;6.63;;
74044;SDS011;62389;51.412;5.436;2023-10-09T13:25:06;15.25;;;7.70;;
74044;SDS011;62389;51.412;5.436;2023-10-09T13:27:41;13.43;;;6.68;;
74044;SDS011;62389;51.412;5.436;2023-10-09T13:32:34;13.00;;;7.50;;
74044;SDS011;62389;51.412;5.436;2023-10-09T13:35:01;11.55;;;7.75;;
74044;SDS011;62389;51.412;5.436;2023-10-09T13:37:30;15.50;;;7.15;;
74044;SDS011;62389;51.412;5.436;2023-10-09T13:40:02;13.93;;;7.43;;
74044;SDS011;62389;51.412;5.436;2023-10-09T13:42:36;15.55;;;7.15;;
74044;SDS011;62389;51.412;5.436;2023-10-09T13:45:03;13.52;;;6.75;;
74044;SDS011;62389;51.412;5.436;2023-10-09T13:47:32;18.70;;;7.20;;
74044;SDS011;62389;51.412;5.436;2023-10-09T13:49:58;14.38;;;8.02;;
74044;SDS011;62389;51.412;5.436;2023-10-09T13:52:24;14.02;;;7.50;;
74044;SDS011;62389;51.412;5.436;2023-10-09T13:54:50;12.95;;;7.20;;
74044;SDS011;62389;51.412;5.436;2023-10-09T13:57:15;14.57;;;7.05;;
74044;SDS011;62389;51.412;5.436;2023-10-09T13:59:42;13.52;;;7.53;;
74044;SDS011;62389;51.412;5.436;2023-10-09T14:02:19;17.83;;;7.30;;
74044;SDS011;62389;51.412;5.436;2023-10-09T14:04:46;13.23;;;7.10;;
74044;SDS011;62389;51.412;5.436;2023-10-09T14:07:16;15.30;;;7.32;;
74044;SDS011;62389;51.412;5.436;2023-10-09T14:09:42;14.25;;;7.28;;
74044;SDS011;62389;51.412;5.436;2023-10-09T14:12:08;13.93;;;6.85;;
74044;SDS011;62389;51.412;5.436;2023-10-09T14:14:38;11.88;;;6.22;;
74044;SDS011;62389;51.412;5.436;2023-10-09T14:17:08;12.48;;;6.13;;
74044;SDS011;62389;51.412;5.436;2023-10-09T14:19:43;12.82;;;6.45;;
74044;SDS011;62389;51.412;5.436;2023-10-09T14:22:15;12.95;;;6.22;;
74044;SDS011;62389;51.412;5.436;2023-10-09T14:24:45;14.70;;;6.13;;
74044;SDS011;62389;51.412;5.436;2023-10-09T14:27:12;11.48;;;5.70;;
74044;SDS011;62389;51.412;5.436;2023-10-09T14:29:46;12.32;;;6.20;;
74044;SDS011;62389;51.412;5.436;2023-10-09T14:32:12;16.17;;;6.80;;
74044;SDS011;62389;51.412;5.436;2023-10-09T14:34:38;12.13;;;5.68;;
74044;SDS011;62389;51.412;5.436;2023-10-09T14:37:08;13.02;;;6.25;;
74044;SDS011;62389;51.412;5.436;2023-10-09T14:39:37;14.02;;;6.15;;
74044;SDS011;62389;51.412;5.436;2023-10-09T14:42:13;13.68;;;6.72;;
74044;SDS011;62389;51.412;5.436;2023-10-09T14:44:42;12.40;;;5.90;;
74044;SDS011;62389;51.412;5.436;2023-10-09T14:47:10;9.55;;;5.40;;
74044;SDS011;62389;51.412;5.436;2023-10-09T14:49:35;14.05;;;6.13;;
74044;SDS011;62389;51.412;5.436;2023-10-09T14:52:08;12.13;;;5.10;;
74044;SDS011;62389;51.412;5.436;2023-10-09T14:54:37;11.82;;;5.50;;
74044;SDS011;62389;51.412;5.436;2023-10-09T14:57:03;12.75;;;5.88;;
74044;SDS011;62389;51.412;5.436;2023-10-09T14:59:32;11.30;;;5.72;;
74044;SDS011;62389;51.412;5.436;2023-10-09T15:01:58;12.65;;;5.80;;
74044;SDS011;62389;51.412;5.436;2023-10-09T15:04:24;13.73;;;5.60;;
74044;SDS011;62389;51.412;5.436;2023-10-09T15:06:51;13.52;;;6.47;;
74044;SDS011;62389;51.412;5.436;2023-10-09T15:09:19;10.95;;;5.88;;
74044;SDS011;62389;51.412;5.436;2023-10-09T15:11:47;13.70;;;5.72;;
74044;SDS011;62389;51.412;5.436;2023-10-09T15:14:14;12.70;;;5.22;;
74044;SDS011;62389;51.412;5.436;2023-10-09T15:16:39;9.18;;;5.53;;
74044;SDS011;62389;51.412;5.436;2023-10-09T15:19:08;13.05;;;6.43;;
74044;SDS011;62389;51.412;5.436;2023-10-09T15:21:35;10.75;;;5.72;;
74044;SDS011;62389;51.412;5.436;2023-10-09T15:24:07;10.00;;;5.47;;
74044;SDS011;62389;51.412;5.436;2023-10-09T15:26:34;12.02;;;4.90;;
74044;SDS011;62389;51.412;5.436;2023-10-09T15:29:00;13.40;;;5.53;;
74044;SDS011;62389;51.412;5.436;2023-10-09T15:31:28;13.27;;;6.30;;
74044;SDS011;62389;51.412;5.436;2023-10-09T15:33:56;11.05;;;5.03;;